Time;durP1;ratioP1;P1;durP2;ratioP2;P2;SDS_P1;SDS_P2;PMS_P1;PMS_P2;Temp;Humidity;BMP_temperature;BMP_pressure;BME280_temperature;BME280_humidity;BME280_pressure;Samples;Min_cycle;Max_cycle;Signal;HPM_P1;HPM_P2
2022/03/09 00:00:58;;;;;;;17.13;9.50;;;2.90;53.00;;;;;;20978493;28;20660;-60
2022/03/09 00:11:00;;;;;;;21.67;11.10;;;2.80;53.40;;;;;;20978678;28;20605;-60
2022/03/09 00:21:02;;;;;;;21.93;10.07;;;2.70;53.50;;;;;;20929412;28;20213;-60
2022/03/09 00:31:03;;;;;;;22.87;11.17;;;2.70;54.00;;;;;;20922526;28;20269;-60
2022/03/09 00:41:06;;;;;;;16.93;9.37;;;2.40;54.10;;;;;;20921966;28;20662;-59
2022/03/09 00:51:08;;;;;;;21.17;9.97;;;2.40;54.80;;;;;;20921634;28;20743;-62
2022/03/09 01:01:11;;;;;;;18.27;9.80;;;2.50;54.50;;;;;;20918850;28;20249;-63
2022/03/09 01:11:14;;;;;;;17.97;9.43;;;2.40;54.60;;;;;;20919563;28;20221;-64
2022/03/09 01:21:16;;;;;;;25.43;9.17;;;2.30;55.30;;;;;;20919077;28;20232;-62
2022/03/09 01:31:20;;;;;;;17.57;9.77;;;2.30;55.80;;;;;;20917031;28;20302;-61
2022/03/09 01:41:22;;;;;;;17.80;9.27;;;2.10;56.00;;;;;;20916961;28;20750;-62
2022/03/09 01:51:26;;;;;;;16.53;9.40;;;2.10;56.30;;;;;;20923680;28;20228;-61
2022/03/09 02:01:28;;;;;;;14.77;7.83;;;2.10;56.10;;;;;;20935532;28;20606;-61
2022/03/09 02:11:33;;;;;;;14.23;8.27;;;1.80;55.90;;;;;;20914961;28;20216;-62
2022/03/09 02:21:37;;;;;;;17.33;9.10;;;1.60;55.60;;;;;;20914524;28;20233;-63
2022/03/09 02:31:39;;;;;;;16.50;7.90;;;1.50;55.70;;;;;;20913787;28;20204;-67
2022/03/09 02:41:41;;;;;;;17.80;8.47;;;1.40;56.00;;;;;;20912654;28;20662;-66
2022/03/09 02:51:42;;;;;;;14.53;8.63;;;1.50;56.40;;;;;;20916120;28;20251;-65
2022/03/09 03:01:44;;;;;;;15.20;7.70;;;1.40;56.40;;;;;;20915409;28;20231;-66
2022/03/09 03:11:46;;;;;;;19.10;8.13;;;1.20;56.60;;;;;;20911433;28;20685;-61
2022/03/09 03:21:48;;;;;;;26.00;8.40;;;1.10;56.70;;;;;;20910859;28;20258;-66
2022/03/09 03:31:49;;;;;;;14.83;7.83;;;1.10;56.60;;;;;;20910961;28;20208;-68
2022/03/09 03:41:53;;;;;;;11.87;7.90;;;1.00;56.60;;;;;;20910107;28;20237;-65
2022/03/09 03:51:55;;;;;;;12.30;7.47;;;0.90;57.40;;;;;;20916600;28;20271;-67
2022/03/09 04:01:56;;;;;;;14.63;8.23;;;0.90;57.90;;;;;;20925200;28;20631;-60
2022/03/09 04:11:59;;;;;;;27.60;8.27;;;0.80;57.50;;;;;;20924638;28;20208;-67
2022/03/09 04:22:00;;;;;;;16.47;8.67;;;0.70;58.00;;;;;;20923457;28;20295;-60
2022/03/09 04:32:02;;;;;;;16.00;6.97;;;0.90;58.00;;;;;;20926008;28;20213;-61
2022/03/09 04:42:04;;;;;;;16.93;8.80;;;0.90;57.90;;;;;;20922866;28;20576;-67
2022/03/09 04:52:06;;;;;;;16.33;8.43;;;0.90;58.20;;;;;;20921358;28;20569;-67
2022/03/09 05:02:08;;;;;;;18.50;8.57;;;0.90;58.60;;;;;;20920246;28;20294;-67
2022/03/09 05:12:10;;;;;;;19.33;9.00;;;0.60;58.50;;;;;;20919637;28;20230;-65
2022/03/09 05:22:11;;;;;;;18.70;8.57;;;0.60;59.10;;;;;;20918331;28;20770;-67
2022/03/09 05:32:24;;;;;;;27.43;9.43;;;0.30;59.60;;;;;;20918294;28;20239;-67
2022/03/09 05:42:26;;;;;;;21.43;8.67;;;0.20;59.90;;;;;;20917296;28;20642;-66
2022/03/09 05:52:27;;;;;;;23.67;9.03;;;0.50;59.80;;;;;;20920603;28;20261;-60
2022/03/09 06:02:29;;;;;;;20.50;9.33;;;0.20;59.90;;;;;;20915216;28;20291;-59
2022/03/09 06:12:31;;;;;;;20.03;9.53;;;0.40;60.50;;;;;;20914008;28;20657;-60
2022/03/09 06:22:32;;;;;;;21.90;9.53;;;0.40;60.60;;;;;;20913194;28;20244;-65
2022/03/09 06:32:34;;;;;;;22.47;9.00;;;0.40;61.20;;;;;;20913404;28;20275;-64
2022/03/09 06:42:36;;;;;;;21.43;9.70;;;1.00;60.10;;;;;;20911930;28;20236;-61
2022/03/09 06:52:38;;;;;;;37.20;9.80;;;1.00;60.70;;;;;;20911549;28;20733;-64
2022/03/09 07:02:41;;;;;;;30.63;10.37;;;1.20;59.90;;;;;;20909665;28;20249;-67
2022/03/09 07:12:45;;;;;;;26.43;11.37;;;1.40;60.40;;;;;;20910387;28;20205;-64
2022/03/09 07:22:47;;;;;;;25.37;11.07;;;1.40;61.00;;;;;;20909662;28;20235;-66
2022/03/09 07:32:49;;;;;;;21.13;11.90;;;2.00;60.20;;;;;;20926507;28;20279;-65
2022/03/09 07:42:55;;;;;;;27.10;11.77;;;2.00;60.00;;;;;;20925628;28;20276;-64
2022/03/09 07:52:57;;;;;;;26.90;11.57;;;2.20;60.50;;;;;;20932140;28;20207;-64
2022/03/09 08:02:58;;;;;;;36.57;12.03;;;2.50;60.00;;;;;;20928251;28;20275;-65
2022/03/09 08:13:20;;;;;;;25.63;12.33;;;2.90;59.20;;;;;;20924521;28;20307;-64
2022/03/09 08:23:23;;;;;;;25.10;12.20;;;3.50;58.80;;;;;;20922171;28;20293;-63
2022/03/09 08:33:24;;;;;;;22.50;11.83;;;3.70;59.20;;;;;;20921951;28;20269;-60
2022/03/09 08:43:26;;;;;;;24.03;11.70;;;4.30;58.00;;;;;;20921206;28;20241;-62
2022/03/09 08:53:28;;;;;;;21.83;12.47;;;4.70;57.50;;;;;;20922780;28;20265;-66
2022/03/09 09:03:30;;;;;;;20.07;11.30;;;5.00;57.10;;;;;;20920393;28;20778;-61
2022/03/09 09:13:32;;;;;;;22.17;12.03;;;5.10;57.30;;;;;;20918158;28;20230;-62
2022/03/09 09:23:33;;;;;;;19.87;11.00;;;5.60;56.50;;;;;;20917349;28;20236;-65
2022/03/09 09:33:35;;;;;;;14.77;10.27;;;6.00;56.70;;;;;;20917383;28;20204;-60
2022/03/09 09:43:38;;;;;;;16.00;9.67;;;6.80;54.60;;;;;;20918841;28;20232;-60
2022/03/09 09:53:44;;;;;;;20.50;9.80;;;6.90;54.90;;;;;;20922500;28;20568;-59
2022/03/09 10:03:46;;;;;;;18.57;10.27;;;7.30;53.20;;;;;;20913559;28;20245;-60
2022/03/09 10:13:48;;;;;;;17.53;9.60;;;7.80;52.00;;;;;;20913556;28;20683;-62
2022/03/09 10:24:05;;;;;;;15.63;10.00;;;7.80;52.40;;;;;;20913211;28;20230;-60
2022/03/09 10:34:10;;;;;;;17.97;10.83;;;8.10;51.70;;;;;;20912066;28;20207;-61
2022/03/09 10:44:12;;;;;;;15.60;9.93;;;8.40;50.70;;;;;;20911932;28;20241;-60
2022/03/09 10:54:22;;;;;;;16.20;9.47;;;8.60;50.60;;;;;;20909284;28;20208;-62
2022/03/09 11:04:24;;;;;;;14.40;9.90;;;8.80;49.80;;;;;;20910753;28;20336;-62
2022/03/09 11:14:26;;;;;;;12.93;8.03;;;9.00;48.80;;;;;;20909311;28;20211;-60
2022/03/09 11:24:31;;;;;;;15.43;8.40;;;9.30;48.40;;;;;;20910259;28;20242;-62
2022/03/09 11:34:34;;;;;;;14.53;7.87;;;9.50;47.50;;;;;;20910278;28;20282;-63
2022/03/09 11:44:38;;;;;;;12.53;7.40;;;9.70;46.30;;;;;;20909145;28;20284;-59
2022/03/09 11:54:49;;;;;;;12.90;7.00;;;10.00;44.00;;;;;;20908098;28;20231;-61
2022/03/09 12:04:52;;;;;;;11.90;7.33;;;10.30;42.50;;;;;;20902098;28;20264;-61
2022/03/09 12:15:08;;;;;;;14.23;6.70;;;10.70;40.40;;;;;;20916006;28;20270;-61
2022/03/09 12:25:43;;;;;;;9.57;6.30;;;11.20;38.80;;;;;;20922633;28;20601;-62
2022/03/09 12:35:45;;;;;;;8.50;5.83;;;11.60;37.70;;;;;;20921422;28;20206;-61
2022/03/09 12:45:53;;;;;;;10.67;6.63;;;11.80;37.90;;;;;;20921011;28;20328;-61
2022/03/09 12:55:55;;;;;;;9.87;6.87;;;12.10;37.20;;;;;;20920088;28;20710;-66
2022/03/09 13:05:57;;;;;;;11.40;6.93;;;12.40;36.40;;;;;;20918280;28;20279;-63
2022/03/09 13:15:59;;;;;;;13.93;7.07;;;12.70;35.70;;;;;;20917611;28;20251;-65
2022/03/09 13:26:16;;;;;;;12.63;8.20;;;12.70;36.20;;;;;;20918395;28;20595;-65
2022/03/09 13:36:19;;;;;;;8.70;6.00;;;12.90;35.60;;;;;;20919594;28;20209;-61
2022/03/09 13:46:23;;;;;;;11.43;6.70;;;13.10;33.80;;;;;;20922628;28;20228;-61
2022/03/09 13:56:25;;;;;;;11.80;6.10;;;13.20;34.20;;;;;;20932972;28;20200;-62
2022/03/09 14:06:28;;;;;;;9.47;7.00;;;13.60;31.70;;;;;;20916628;28;20243;-61
2022/03/09 14:16:44;;;;;;;10.47;6.90;;;13.70;32.10;;;;;;20915064;28;20292;-67
2022/03/09 14:26:48;;;;;;;11.80;6.40;;;14.00;32.00;;;;;;20913190;28;20234;-66
2022/03/09 14:36:50;;;;;;;8.50;5.50;;;14.80;31.00;;;;;;20912130;28;20208;-62
2022/03/09 14:46:51;;;;;;;7.50;5.87;;;16.20;29.40;;;;;;20921680;28;20234;-67
2022/03/09 14:56:53;;;;;;;19.20;6.70;;;19.20;28.70;;;;;;20958382;28;20207;-66
2022/03/09 15:06:55;;;;;;;14.23;5.60;;;21.10;27.40;;;;;;20992221;28;20238;-66
2022/03/09 15:16:58;;;;;;;9.32;6.40;;;22.70;26.50;;;;;;20994196;28;20215;-61
2022/03/09 15:27:00;;;;;;;13.43;5.90;;;25.00;25.20;;;;;;20993503;28;20300;-63
2022/03/09 15:37:01;;;;;;;10.18;5.63;;;24.10;24.10;;;;;;20992466;28;20249;-66
2022/03/09 15:47:08;;;;;;;8.77;6.93;;;23.50;24.50;;;;;;20940005;28;20228;-69
2022/03/09 15:57:11;;;;;;;12.53;7.37;;;21.30;24.60;;;;;;20924713;28;20242;-66
2022/03/09 16:07:13;;;;;;;10.50;6.87;;;18.40;25.20;;;;;;20932560;28;20241;-63
2022/03/09 16:17:14;;;;;;;11.83;6.60;;;16.60;26.10;;;;;;20969663;28;20555;-63
2022/03/09 16:27:22;;;;;;;11.13;7.03;;;15.50;26.60;;;;;;20958636;28;20242;-65
2022/03/09 16:37:24;;;;;;;9.60;7.07;;;14.70;26.90;;;;;;20920617;28;20232;-64
2022/03/09 16:47:26;;;;;;;12.97;8.17;;;14.30;27.80;;;;;;20991634;28;20230;-65
2022/03/09 16:57:29;;;;;;;12.33;7.40;;;13.80;28.50;;;;;;21003487;28;20724;-64
2022/03/09 17:07:31;;;;;;;8.97;7.13;;;13.40;29.20;;;;;;21002724;28;20235;-65
2022/03/09 17:17:34;;;;;;;13.67;9.20;;;13.00;29.50;;;;;;20961728;28;20202;-62
2022/03/09 17:27:36;;;;;;;16.83;8.57;;;12.70;30.00;;;;;;20989153;28;20769;-68
2022/03/09 17:37:40;;;;;;;20.07;11.43;;;11.90;31.40;;;;;;20917491;28;20234;-64
2022/03/09 17:47:41;;;;;;;24.63;10.83;;;11.70;32.20;;;;;;20947595;28;20274;-64
2022/03/09 17:57:43;;;;;;;19.17;10.43;;;11.30;33.20;;;;;;20922563;28;20627;-64
2022/03/09 18:07:45;;;;;;;27.53;17.63;;;10.90;34.60;;;;;;20913824;28;20356;-65
2022/03/09 18:17:46;;;;;;;32.07;11.50;;;10.50;35.50;;;;;;20912405;28;20261;-66
2022/03/09 18:27:50;;;;;;;26.53;13.73;;;10.20;37.30;;;;;;20991454;28;20231;-67
2022/03/09 18:37:52;;;;;;;23.47;13.50;;;9.90;39.40;;;;;;20995591;28;20203;-63
2022/03/09 18:47:53;;;;;;;34.93;13.10;;;9.60;39.00;;;;;;20995473;28;20241;-67
2022/03/09 18:57:55;;;;;;;19.37;12.43;;;9.40;39.70;;;;;;20994770;28;20209;-69
2022/03/09 19:07:57;;;;;;;27.27;13.20;;;8.90;40.70;;;;;;20993798;28;20710;-76
2022/03/09 19:18:00;;;;;;;26.97;14.03;;;8.70;41.70;;;;;;20996209;28;20237;-63
2022/03/09 19:28:02;;;;;;;22.93;12.97;;;8.30;42.00;;;;;;20927641;28;20240;-68
2022/03/09 19:38:05;;;;;;;27.30;15.37;;;8.30;42.60;;;;;;20928223;28;20215;-65
2022/03/09 19:48:06;;;;;;;21.20;12.90;;;8.00;42.90;;;;;;20925003;28;20225;-66
2022/03/09 19:58:08;;;;;;;36.80;15.00;;;7.70;43.40;;;;;;20922460;28;20768;-67
2022/03/09 20:08:12;;;;;;;25.77;14.03;;;7.40;44.20;;;;;;20936526;28;20302;-68
2022/03/09 20:18:15;;;;;;;31.57;14.20;;;7.10;45.00;;;;;;20933827;28;20614;-68
2022/03/09 20:28:17;;;;;;;26.30;13.80;;;7.10;45.60;;;;;;20922110;28;20236;-66
2022/03/09 20:38:19;;;;;;;23.17;13.50;;;6.60;45.80;;;;;;20920132;28;20210;-66
2022/03/09 20:48:21;;;;;;;24.60;12.87;;;6.60;46.50;;;;;;20919721;28;20244;-66
2022/03/09 20:58:22;;;;;;;25.97;14.10;;;6.50;47.10;;;;;;20919300;28;20200;-67
2022/03/09 21:08:26;;;;;;;29.97;14.40;;;6.20;46.90;;;;;;20917919;28;20248;-66
2022/03/09 21:18:51;;;;;;;26.10;13.67;;;5.80;47.30;;;;;;20918609;28;20235;-67
2022/03/09 21:28:53;;;;;;;28.83;14.77;;;5.70;47.60;;;;;;20917164;28;20239;-68
2022/03/09 21:38:55;;;;;;;23.73;13.77;;;5.50;47.90;;;;;;20916001;28;20265;-65
2022/03/09 21:48:57;;;;;;;24.50;13.00;;;5.20;48.20;;;;;;20914124;28;20631;-65
2022/03/09 21:58:58;;;;;;;28.50;13.57;;;5.20;48.70;;;;;;20914515;28;20204;-67
2022/03/09 22:09:00;;;;;;;27.13;13.43;;;5.10;49.20;;;;;;20913856;28;20244;-65
2022/03/09 22:19:02;;;;;;;23.70;13.37;;;4.90;49.60;;;;;;20912547;28;20557;-64
2022/03/09 22:29:07;;;;;;;24.47;13.20;;;4.90;49.80;;;;;;20912667;28;20235;-65
2022/03/09 22:39:08;;;;;;;29.50;13.77;;;4.90;50.50;;;;;;20913637;28;20644;-64
2022/03/09 22:49:10;;;;;;;23.63;13.40;;;4.40;51.00;;;;;;20912937;28;20280;-64
2022/03/09 22:59:12;;;;;;;24.10;12.27;;;4.40;51.50;;;;;;20912275;28;20203;-66
2022/03/09 23:09:13;;;;;;;22.40;11.60;;;4.10;51.50;;;;;;20911584;28;20247;-65
2022/03/09 23:19:16;;;;;;;23.43;12.37;;;4.00;52.00;;;;;;20911616;28;20702;-66
2022/03/09 23:29:18;;;;;;;22.57;11.87;;;4.10;52.00;;;;;;20911512;28;20281;-63
2022/03/09 23:39:19;;;;;;;17.30;10.70;;;3.90;52.00;;;;;;20910892;28;20601;-66
2022/03/09 23:49:21;;;;;;;20.83;10.93;;;3.60;52.00;;;;;;20910701;28;20266;-65
2022/03/09 23:59:23;;;;;;;19.43;10.87;;;3.60;52.50;;;;;;20910553;28;20257;-66
